KECP

Northwest Florida Beaches International Airport

Panama City, Florida, USA
METAR KECP 190253Z 00000KT 10SM CLR M02/M05 A3040 RMK AO2 SLP308 T10171050 51009
Observed Flight Rules
Jan-19 @ 02:53 UTC (50 minutes ago) Visual Flight Rules
Wind Visibility Clouds
Calm 10 miles
  • Clear skies
Temperatures Readings
Current -2°C / 28°F
Dewpoint -5°C / 23°F
Humidity 80%
Altimeter 30.4" Hg
Pressure 1030.8 hPa
Elevation 21
METAR KECP 190253Z 00000KT 10SM CLR M02/M05 A3040 RMK AO2 SLP308 T10171050 51009
Observed Flight Rules
Jan-19 @ 02:53 UTC
(50 minutes ago)
VFR
Wind Visibility
Calm 10 miles
Clouds
  • Clear skies
Temperature Dewpoint
-2°C / 28°F -5°C / 23°F
Humidity Altimeter Pressure
80% 30.4" Hg 1030.8 hPa